KISM/ISM METAR and TAF weather

Enter ICAO airport designator
Station Type Date Time Source
KISM METAR 2022/01/23 11:56 UTC NOAA

KISM 231156Z 34010KT 10SM OVC007 08/06 A3015 RMK AO2 SLP211 6//// 7//// T00780061 10083 20078 53005 PNO $


Station Type Date Time Source
KISM Decoded METAR 2022/01/23 11:56 UTC NOAA

Orlando, Kissimmee Municipal Airport, FL, United States (KISM) 28-17-23N 081-26-14W
Jan 23, 2022 - 06:56 AM EST / 2022.01.23 1156 UTC
Wind: from the NNW (340 degrees) at 12 MPH (10 KT):0
Visibility: 10 mile(s):0
Sky conditions: overcast
Temperature: 46.0 F (7.8 C)
Dew Point: 43.0 F (6.1 C)
Relative Humidity: 88%
Pressure (altimeter): 30.15 in. Hg (1020 hPa)
Pressure tendency: 0.01 inches (0.5 hPa) higher than three hours ago
ob: KISM 231156Z 34010KT 10SM OVC007 08/06 A3015 RMK AO2 SLP211 6//// 7//// T00780061 10083 20078 53005 PNO
cycle: 12

Station Type Date Time Source
KISM TAF 2022/01/23 12:36 UTC NOAA

TAF KISM 231135Z 2312/2412 36007KT P6SM OVC008
FM231400 29008KT P6SM SCT008 BKN012
FM231600 29008KT P6SM SCT015 BKN030
FM231800 29008KT P6SM SCT030
FM232300 36005KT P6SM SKC

Example: see airport list